COL1113 EDNY-EDDW
Flight info
| Callsign | COL1113 |
|---|---|
| Flight time | N/A |
| Altitude | 22000 |
| Route | ALAGO1W ALAGO Z1 ETAGO Z3 LBU/N0441F380 N851 RIMKI Z99 LOHRE/N0441F370 DCT NORTA DCT SAS DCT NIE Z88 VERED VERED3P |
| Aircraft | A319/M-SDE3FGHIRWY/LB1 |
Departure
| Time | 2026-05-01 14:39 |
|---|---|
| Airport | Bodensee Airport Friedrichshafen (EDNY) |
Arrival
| Time | N/A |
|---|---|
| Airport | Bremen Airport (EDDW) |
| Time | Latitude | Longitude | Altitude | Speed | Heading |
|---|---|---|---|---|---|
| 2026-05-01 14:17 | 47.67336 | 9.52315 | 1368 ft | 0 kts | 193° |
| 2026-05-01 14:34 | 47.67334 | 9.52314 | 1368 ft | 1 kts | 196° |
| 2026-05-01 14:34 | 47.67326 | 9.52300 | 1394 ft | 1 kts | 239° |
| 2026-05-01 14:34 | 47.67325 | 9.52299 | 1394 ft | 1 kts | 231° |
| 2026-05-01 14:34 | 47.67324 | 9.52290 | 1394 ft | 2 kts | 276° |
| 2026-05-01 14:35 | 47.67326 | 9.52286 | 1366 ft | 3 kts | 304° |
| 2026-05-01 14:35 | 47.67356 | 9.52282 | 1367 ft | 1 kts | 356° |
| 2026-05-01 14:35 | 47.67383 | 9.52295 | 1367 ft | 6 kts | 34° |
| 2026-05-01 14:35 | 47.67412 | 9.52355 | 1368 ft | 8 kts | 61° |
| 2026-05-01 14:36 | 47.67446 | 9.52433 | 1369 ft | 11 kts | 49° |
| 2026-05-01 14:36 | 47.67470 | 9.52487 | 1369 ft | 0 kts | 58° |
| 2026-05-01 14:36 | 47.67475 | 9.52499 | 1369 ft | 3 kts | 60° |
| 2026-05-01 14:36 | 47.67488 | 9.52533 | 1369 ft | 5 kts | 62° |
| 2026-05-01 14:37 | 47.67511 | 9.52578 | 1369 ft | 6 kts | 34° |
| 2026-05-01 14:37 | 47.67547 | 9.52579 | 1371 ft | 3 kts | 346° |
| 2026-05-01 14:37 | 47.67553 | 9.52576 | 1371 ft | 1 kts | 344° |
| 2026-05-01 14:37 | 47.67577 | 9.52561 | 1371 ft | 8 kts | 333° |
| 2026-05-01 14:38 | 47.67629 | 9.52521 | 1373 ft | 9 kts | 333° |
| 2026-05-01 14:38 | 47.67639 | 9.52456 | 1374 ft | 8 kts | 249° |
| 2026-05-01 14:38 | 47.67636 | 9.52448 | 1374 ft | 0 kts | 242° |
| 2026-05-01 14:38 | 47.67515 | 9.52130 | 1366 ft | 81 kts | 240° |
| 2026-05-01 14:39 | 47.67083 | 9.51054 | 1366 ft | 157 kts | 239° |
| 2026-05-01 14:39 | 47.66516 | 9.49595 | 2043 ft | 160 kts | 238° |
| 2026-05-01 14:39 | 47.65962 | 9.48177 | 2869 ft | 162 kts | 239° |
| 2026-05-01 14:39 | 47.65398 | 9.46708 | 3619 ft | 159 kts | 239° |
| 2026-05-01 14:40 | 47.64827 | 9.45235 | 4003 ft | 175 kts | 239° |
| 2026-05-01 14:40 | 47.64180 | 9.43577 | 4306 ft | 197 kts | 239° |
| 2026-05-01 14:40 | 47.63450 | 9.41701 | 4620 ft | 222 kts | 239° |
| 2026-05-01 14:40 | 47.62794 | 9.39553 | 5245 ft | 234 kts | 262° |
| 2026-05-01 14:41 | 47.63072 | 9.37223 | 6134 ft | 235 kts | 302° |
| 2026-05-01 14:41 | 47.64215 | 9.35499 | 6952 ft | 238 kts | 327° |
| 2026-05-01 14:41 | 47.65644 | 9.34252 | 7760 ft | 241 kts | 334° |
| 2026-05-01 14:41 | 47.67164 | 9.33135 | 8601 ft | 245 kts | 336° |
| 2026-05-01 14:42 | 47.68805 | 9.32474 | 9417 ft | 247 kts | 1° |
| 2026-05-01 14:42 | 47.70488 | 9.32884 | 10262 ft | 247 kts | 24° |
| 2026-05-01 14:42 | 47.71933 | 9.34228 | 11051 ft | 246 kts | 46° |
| 2026-05-01 14:42 | 47.73144 | 9.36043 | 11904 ft | 248 kts | 47° |
| 2026-05-01 14:43 | 47.74355 | 9.37868 | 12728 ft | 249 kts | 47° |
| 2026-05-01 14:43 | 47.75580 | 9.39707 | 13577 ft | 252 kts | 47° |
| 2026-05-01 14:43 | 47.76820 | 9.41560 | 14388 ft | 254 kts | 46° |
| 2026-05-01 14:43 | 47.78051 | 9.43403 | 15125 ft | 256 kts | 46° |
| 2026-05-01 14:44 | 47.79454 | 9.45111 | 15849 ft | 261 kts | 31° |
| 2026-05-01 14:44 | 47.83138 | 9.46331 | 16661 ft | 298 kts | 1° |
| 2026-05-01 14:44 | 47.85262 | 9.46306 | 16820 ft | 321 kts | 1° |
| 2026-05-01 14:45 | 47.87576 | 9.46282 | 16947 ft | 344 kts | 1° |
| 2026-05-01 14:45 | 47.92641 | 9.46254 | 17210 ft | 383 kts | 1° |
| 2026-05-01 14:45 | 47.95377 | 9.46253 | 17343 ft | 401 kts | 1° |
| 2026-05-01 14:46 | 47.98224 | 9.46253 | 17488 ft | 417 kts | 1° |
| 2026-05-01 14:46 | 48.04126 | 9.46238 | 18360 ft | 428 kts | 1° |
| 2026-05-01 14:46 | 48.07115 | 9.46224 | 18840 ft | 432 kts | 1° |
| 2026-05-01 14:47 | 48.10126 | 9.46212 | 19316 ft | 433 kts | 1° |
| 2026-05-01 14:47 | 48.13149 | 9.46203 | 19787 ft | 435 kts | 1° |
| 2026-05-01 14:47 | 48.16184 | 9.46195 | 20257 ft | 437 kts | 1° |
| 2026-05-01 14:48 | 48.22296 | 9.46186 | 21160 ft | 441 kts | 1° |
| 2026-05-01 14:48 | 48.25368 | 9.46189 | 21605 ft | 442 kts | 1° |
| 2026-05-01 14:48 | 48.31563 | 9.46203 | 22271 ft | 448 kts | 1° |
| 2026-05-01 14:49 | 48.37828 | 9.46226 | 23029 ft | 452 kts | 1° |
| 2026-05-01 14:49 | 48.44142 | 9.46228 | 23745 ft | 455 kts | 1° |
| 2026-05-01 14:50 | 48.48396 | 9.46218 | 24134 ft | 458 kts | 1° |
| 2026-05-01 14:50 | 48.56930 | 9.46197 | 24919 ft | 463 kts | 0° |
| 2026-05-01 14:51 | 48.60180 | 9.46161 | 25193 ft | 464 kts | 1° |
| 2026-05-01 14:51 | 48.66551 | 9.46078 | 25700 ft | 467 kts | 0° |
| 2026-05-01 14:52 | 48.73076 | 9.45240 | 26247 ft | 471 kts | 348° |
| 2026-05-01 14:52 | 48.76177 | 9.43789 | 26578 ft | 472 kts | 340° |
| 2026-05-01 14:52 | 48.82247 | 9.39866 | 27407 ft | 469 kts | 338° |
| 2026-05-01 14:53 | 48.85204 | 9.37956 | 27796 ft | 468 kts | 338° |
| 2026-05-01 14:53 | 48.88250 | 9.36002 | 28164 ft | 467 kts | 339° |
| 2026-05-01 14:53 | 48.91342 | 9.34544 | 28564 ft | 465 kts | 348° |
| 2026-05-01 14:53 | 48.94509 | 9.33782 | 29035 ft | 462 kts | 356° |
| 2026-05-01 14:54 | 48.97712 | 9.33503 | 29442 ft | 461 kts | 358° |
| 2026-05-01 14:54 | 49.00965 | 9.33243 | 29852 ft | 461 kts | 358° |
| 2026-05-01 14:54 | 49.04124 | 9.32992 | 30329 ft | 459 kts | 358° |
| 2026-05-01 14:54 | 49.07277 | 9.32744 | 30694 ft | 459 kts | 357° |
| 2026-05-01 14:55 | 49.10462 | 9.32489 | 31067 ft | 458 kts | 357° |
| 2026-05-01 14:55 | 49.13648 | 9.32234 | 31513 ft | 456 kts | 357° |
| 2026-05-01 14:55 | 49.16801 | 9.31982 | 31897 ft | 455 kts | 357° |
| 2026-05-01 14:55 | 49.19956 | 9.31728 | 32289 ft | 454 kts | 357° |
| 2026-05-01 14:56 | 49.23103 | 9.31473 | 32736 ft | 452 kts | 357° |
| 2026-05-01 14:56 | 49.26237 | 9.31226 | 33125 ft | 451 kts | 357° |
| 2026-05-01 14:56 | 49.29374 | 9.30989 | 33532 ft | 450 kts | 357° |
| 2026-05-01 14:56 | 49.32492 | 9.30757 | 33990 ft | 448 kts | 357° |
| 2026-05-01 14:57 | 49.35618 | 9.30628 | 34344 ft | 449 kts | 2° |
| 2026-05-01 14:57 | 49.41820 | 9.31481 | 35074 ft | 447 kts | 5° |
| 2026-05-01 14:57 | 49.44920 | 9.31940 | 35401 ft | 447 kts | 5° |
| 2026-05-01 14:58 | 49.48006 | 9.32396 | 35811 ft | 445 kts | 5° |
| 2026-05-01 14:58 | 49.51084 | 9.32852 | 36161 ft | 445 kts | 5° |
| 2026-05-01 14:58 | 49.54172 | 9.33311 | 36506 ft | 444 kts | 4° |
| 2026-05-01 14:58 | 49.57242 | 9.33765 | 36882 ft | 443 kts | 5° |
| 2026-05-01 14:59 | 49.59273 | 9.34065 | 37077 ft | 443 kts | 5° |
| 2026-05-01 14:59 | 49.63368 | 9.34673 | 37541 ft | 442 kts | 4° |
| 2026-05-01 14:59 | 49.66423 | 9.35132 | 37864 ft | 441 kts | 5° |
| 2026-05-01 14:59 | 49.69475 | 9.35586 | 38163 ft | 441 kts | 4° |
| 2026-05-01 15:00 | 49.75548 | 9.36656 | 38330 ft | 439 kts | 11° |
| 2026-05-01 15:00 | 49.78516 | 9.37756 | 38329 ft | 438 kts | 12° |
| 2026-05-01 15:01 | 49.83434 | 9.39650 | 38330 ft | 438 kts | 12° |
| 2026-05-01 15:01 | 49.89357 | 9.41930 | 38329 ft | 439 kts | 12° |
| 2026-05-01 15:02 | 49.95248 | 9.44207 | 38331 ft | 438 kts | 13° |
| 2026-05-01 15:02 | 50.01200 | 9.46511 | 38334 ft | 439 kts | 12° |
| 2026-05-01 15:03 | 50.07139 | 9.48690 | 38330 ft | 437 kts | 7° |
| 2026-05-01 15:03 | 50.13143 | 9.49722 | 38324 ft | 437 kts | 5° |
| 2026-05-01 15:04 | 50.19186 | 9.50784 | 38319 ft | 437 kts | 5° |
| 2026-05-01 15:04 | 50.25247 | 9.51857 | 38322 ft | 437 kts | 5° |
| 2026-05-01 15:05 | 50.31299 | 9.52907 | 38323 ft | 438 kts | 5° |
| 2026-05-01 15:05 | 50.37366 | 9.53964 | 38321 ft | 438 kts | 5° |
| 2026-05-01 15:06 | 50.43420 | 9.55025 | 38320 ft | 438 kts | 5° |
| 2026-05-01 15:06 | 50.49486 | 9.56085 | 38327 ft | 438 kts | 5° |
| 2026-05-01 15:07 | 50.55518 | 9.57150 | 38322 ft | 439 kts | 5° |
| 2026-05-01 15:07 | 50.61584 | 9.58220 | 38321 ft | 439 kts | 5° |
| 2026-05-01 15:08 | 50.67659 | 9.59300 | 38321 ft | 440 kts | 5° |
| 2026-05-01 15:08 | 50.73743 | 9.60377 | 38323 ft | 440 kts | 5° |
| 2026-05-01 15:09 | 50.79833 | 9.61466 | 38328 ft | 440 kts | 5° |
| 2026-05-01 15:09 | 50.85924 | 9.62546 | 38327 ft | 440 kts | 5° |
| 2026-05-01 15:10 | 50.92014 | 9.63638 | 38322 ft | 440 kts | 5° |
| 2026-05-01 15:10 | 51.00748 | 9.65204 | 38331 ft | 440 kts | 5° |
| 2026-05-01 15:11 | 51.09892 | 9.66852 | 38331 ft | 440 kts | 5° |
| 2026-05-01 15:12 | 51.15986 | 9.67958 | 38329 ft | 440 kts | 5° |
| 2026-05-01 15:12 | 51.25120 | 9.69614 | 38336 ft | 440 kts | 5° |
| 2026-05-01 15:14 | 51.40342 | 9.72374 | 38333 ft | 440 kts | 5° |